N25MP EBAW-EDDL
Flight info
| Callsign | N25MP |
|---|---|
| Flight time | N/A |
| Altitude | 15000 |
| Route | SONDI L179 SORAT DCT LMA LMA8G |
| Aircraft | C414/L-SBDFGRY/S |
Departure
| Time | 2026-04-16 07:49 |
|---|---|
| Airport | Antwerp International Airport (Deurne) (EBAW) |
Arrival
| Time | N/A |
|---|---|
| Airport | Düsseldorf Airport (EDDL) |
| Time | Latitude | Longitude | Altitude | Speed | Heading |
|---|---|---|---|---|---|
| 2026-04-16 07:24 | 51.19276 | 4.46135 | 33 ft | 0 kts | 340° |
| 2026-04-16 07:45 | 51.19277 | 4.46134 | 33 ft | 3 kts | 335° |
| 2026-04-16 07:45 | 51.19252 | 4.46162 | 33 ft | 19 kts | 118° |
| 2026-04-16 07:45 | 51.19168 | 4.46181 | 33 ft | 22 kts | 198° |
| 2026-04-16 07:46 | 51.19128 | 4.46158 | 34 ft | 0 kts | 201° |
| 2026-04-16 07:46 | 51.19120 | 4.46153 | 34 ft | 0 kts | 201° |
| 2026-04-16 07:46 | 51.19114 | 4.46150 | 34 ft | 5 kts | 200° |
| 2026-04-16 07:47 | 51.19060 | 4.46118 | 38 ft | 7 kts | 179° |
| 2026-04-16 07:47 | 51.19034 | 4.46099 | 38 ft | 9 kts | 277° |
| 2026-04-16 07:47 | 51.19060 | 4.46042 | 38 ft | 0 kts | 292° |
| 2026-04-16 07:48 | 51.19060 | 4.46040 | 38 ft | 0 kts | 291° |
| 2026-04-16 07:48 | 51.19100 | 4.45863 | 36 ft | 49 kts | 290° |
| 2026-04-16 07:49 | 51.19269 | 4.45052 | 123 ft | 92 kts | 291° |
| 2026-04-16 07:49 | 51.19469 | 4.43961 | 385 ft | 111 kts | 290° |
| 2026-04-16 07:49 | 51.19577 | 4.42693 | 650 ft | 120 kts | 263° |
| 2026-04-16 07:49 | 51.19246 | 4.41550 | 1257 ft | 106 kts | 238° |
| 2026-04-16 07:50 | 51.18853 | 4.40571 | 1672 ft | 111 kts | 243° |
| 2026-04-16 07:50 | 51.18509 | 4.39509 | 2239 ft | 100 kts | 242° |
| 2026-04-16 07:50 | 51.18154 | 4.38543 | 2659 ft | 106 kts | 240° |
| 2026-04-16 07:50 | 51.17760 | 4.37492 | 3001 ft | 118 kts | 239° |
| 2026-04-16 07:51 | 51.17286 | 4.36218 | 3012 ft | 147 kts | 240° |
| 2026-04-16 07:51 | 51.16736 | 4.34722 | 3015 ft | 164 kts | 240° |
| 2026-04-16 07:51 | 51.16142 | 4.33094 | 3012 ft | 175 kts | 240° |
| 2026-04-16 07:51 | 51.15521 | 4.31384 | 3008 ft | 179 kts | 241° |
| 2026-04-16 07:52 | 51.14682 | 4.29938 | 3005 ft | 182 kts | 210° |
| 2026-04-16 07:52 | 51.13466 | 4.29642 | 2985 ft | 182 kts | 160° |
| 2026-04-16 07:52 | 51.12411 | 4.30711 | 2994 ft | 176 kts | 169° |
| 2026-04-16 07:52 | 51.11214 | 4.30800 | 3003 ft | 172 kts | 187° |
| 2026-04-16 07:53 | 51.10010 | 4.30890 | 3004 ft | 178 kts | 169° |
| 2026-04-16 07:53 | 51.08878 | 4.31771 | 3006 ft | 185 kts | 152° |
| 2026-04-16 07:53 | 51.07866 | 4.33046 | 3005 ft | 191 kts | 131° |
| 2026-04-16 07:53 | 51.07301 | 4.34991 | 3009 ft | 196 kts | 113° |
| 2026-04-16 07:54 | 51.06852 | 4.37043 | 3010 ft | 197 kts | 112° |
| 2026-04-16 07:54 | 51.06407 | 4.39078 | 3009 ft | 198 kts | 112° |
| 2026-04-16 07:54 | 51.05956 | 4.41155 | 3006 ft | 198 kts | 112° |
| 2026-04-16 07:54 | 51.05661 | 4.42515 | 3008 ft | 198 kts | 112° |